sensor_id;sensor_type;location;lat;lon;timestamp;P1;durP1;ratioP1;P2;durP2;ratioP2
76228;SDS011;65021;53.174;18.160;2023-05-21T00:01:36;13.90;;;6.00;;
76228;SDS011;65021;53.174;18.160;2023-05-21T00:04:04;13.90;;;7.40;;
76228;SDS011;65021;53.174;18.160;2023-05-21T00:06:36;9.60;;;5.10;;
76228;SDS011;65021;53.174;18.160;2023-05-21T00:09:05;8.80;;;4.40;;
76228;SDS011;65021;53.174;18.160;2023-05-21T00:11:32;9.60;;;4.80;;
76228;SDS011;65021;53.174;18.160;2023-05-21T00:13:59;13.20;;;5.30;;
76228;SDS011;65021;53.174;18.160;2023-05-21T00:16:25;11.70;;;5.80;;
76228;SDS011;65021;53.174;18.160;2023-05-21T00:18:55;8.20;;;4.00;;
76228;SDS011;65021;53.174;18.160;2023-05-21T00:21:23;11.80;;;5.70;;
76228;SDS011;65021;53.174;18.160;2023-05-21T00:23:51;7.90;;;4.40;;
76228;SDS011;65021;53.174;18.160;2023-05-21T00:26:21;10.60;;;5.00;;
76228;SDS011;65021;53.174;18.160;2023-05-21T00:28:52;11.30;;;6.10;;
76228;SDS011;65021;53.174;18.160;2023-05-21T00:33:50;7.00;;;3.60;;
76228;SDS011;65021;53.174;18.160;2023-05-21T00:36:17;10.10;;;5.30;;
76228;SDS011;65021;53.174;18.160;2023-05-21T00:38:43;6.50;;;3.30;;
76228;SDS011;65021;53.174;18.160;2023-05-21T00:41:11;10.80;;;5.30;;
76228;SDS011;65021;53.174;18.160;2023-05-21T00:43:38;12.20;;;6.30;;
76228;SDS011;65021;53.174;18.160;2023-05-21T00:46:08;10.40;;;5.40;;
76228;SDS011;65021;53.174;18.160;2023-05-21T00:48:37;8.70;;;3.90;;
76228;SDS011;65021;53.174;18.160;2023-05-21T00:51:05;10.60;;;4.90;;
76228;SDS011;65021;53.174;18.160;2023-05-21T00:53:32;11.30;;;5.30;;
76228;SDS011;65021;53.174;18.160;2023-05-21T00:56:03;8.70;;;3.70;;
76228;SDS011;65021;53.174;18.160;2023-05-21T00:58:31;8.80;;;3.90;;
76228;SDS011;65021;53.174;18.160;2023-05-21T01:00:58;9.50;;;4.30;;
76228;SDS011;65021;53.174;18.160;2023-05-21T01:03:29;8.60;;;4.10;;
76228;SDS011;65021;53.174;18.160;2023-05-21T01:05:55;10.90;;;6.30;;
76228;SDS011;65021;53.174;18.160;2023-05-21T01:08:25;9.30;;;4.80;;
76228;SDS011;65021;53.174;18.160;2023-05-21T01:10:54;9.70;;;5.40;;
76228;SDS011;65021;53.174;18.160;2023-05-21T01:13:21;12.20;;;6.00;;
76228;SDS011;65021;53.174;18.160;2023-05-21T01:15:49;10.00;;;5.40;;
76228;SDS011;65021;53.174;18.160;2023-05-21T01:18:17;9.90;;;5.40;;
76228;SDS011;65021;53.174;18.160;2023-05-21T01:20:45;10.00;;;4.90;;
76228;SDS011;65021;53.174;18.160;2023-05-21T01:23:15;8.90;;;4.90;;
76228;SDS011;65021;53.174;18.160;2023-05-21T01:25:43;10.00;;;4.70;;
76228;SDS011;65021;53.174;18.160;2023-05-21T01:28:10;12.40;;;6.30;;
76228;SDS011;65021;53.174;18.160;2023-05-21T01:35:41;8.40;;;4.40;;
76228;SDS011;65021;53.174;18.160;2023-05-21T01:38:21;9.00;;;4.50;;
76228;SDS011;65021;53.174;18.160;2023-05-21T01:40:52;8.30;;;4.40;;
76228;SDS011;65021;53.174;18.160;2023-05-21T01:43:26;10.00;;;5.40;;
76228;SDS011;65021;53.174;18.160;2023-05-21T01:45:56;8.60;;;4.90;;
76228;SDS011;65021;53.174;18.160;2023-05-21T01:48:26;11.20;;;5.20;;
76228;SDS011;65021;53.174;18.160;2023-05-21T01:50:54;9.30;;;4.40;;
76228;SDS011;65021;53.174;18.160;2023-05-21T01:53:23;11.90;;;5.80;;
76228;SDS011;65021;53.174;18.160;2023-05-21T01:55:50;10.10;;;5.90;;
76228;SDS011;65021;53.174;18.160;2023-05-21T01:58:17;7.30;;;3.80;;
76228;SDS011;65021;53.174;18.160;2023-05-21T02:00:44;9.70;;;5.20;;
76228;SDS011;65021;53.174;18.160;2023-05-21T02:03:11;12.80;;;6.70;;
76228;SDS011;65021;53.174;18.160;2023-05-21T02:05:39;9.70;;;5.80;;
76228;SDS011;65021;53.174;18.160;2023-05-21T02:08:06;10.50;;;5.40;;
76228;SDS011;65021;53.174;18.160;2023-05-21T02:10:36;10.10;;;5.40;;
76228;SDS011;65021;53.174;18.160;2023-05-21T02:13:03;12.20;;;6.60;;
76228;SDS011;65021;53.174;18.160;2023-05-21T02:15:30;9.40;;;5.20;;
76228;SDS011;65021;53.174;18.160;2023-05-21T02:17:59;10.20;;;5.30;;
76228;SDS011;65021;53.174;18.160;2023-05-21T02:20:26;11.60;;;5.00;;
76228;SDS011;65021;53.174;18.160;2023-05-21T02:22:52;6.90;;;3.80;;
76228;SDS011;65021;53.174;18.160;2023-05-21T02:25:19;12.50;;;6.10;;
76228;SDS011;65021;53.174;18.160;2023-05-21T02:27:45;7.50;;;4.20;;
76228;SDS011;65021;53.174;18.160;2023-05-21T02:30:13;7.90;;;4.00;;
76228;SDS011;65021;53.174;18.160;2023-05-21T02:32:41;7.90;;;4.10;;
76228;SDS011;65021;53.174;18.160;2023-05-21T02:35:09;11.10;;;6.30;;
76228;SDS011;65021;53.174;18.160;2023-05-21T02:37:37;8.10;;;4.70;;
76228;SDS011;65021;53.174;18.160;2023-05-21T02:40:05;8.70;;;4.90;;
76228;SDS011;65021;53.174;18.160;2023-05-21T02:42:33;10.70;;;6.40;;
76228;SDS011;65021;53.174;18.160;2023-05-21T02:45:01;10.30;;;5.10;;
76228;SDS011;65021;53.174;18.160;2023-05-21T02:47:28;10.20;;;5.50;;
76228;SDS011;65021;53.174;18.160;2023-05-21T02:49:57;6.40;;;3.40;;
76228;SDS011;65021;53.174;18.160;2023-05-21T02:52:25;11.10;;;4.80;;
76228;SDS011;65021;53.174;18.160;2023-05-21T02:54:51;10.40;;;5.50;;
76228;SDS011;65021;53.174;18.160;2023-05-21T02:57:18;9.60;;;4.50;;
76228;SDS011;65021;53.174;18.160;2023-05-21T02:59:45;9.40;;;5.90;;
76228;SDS011;65021;53.174;18.160;2023-05-21T03:02:11;8.60;;;4.70;;
76228;SDS011;65021;53.174;18.160;2023-05-21T03:04:38;8.90;;;4.40;;
76228;SDS011;65021;53.174;18.160;2023-05-21T03:07:11;7.60;;;4.00;;
76228;SDS011;65021;53.174;18.160;2023-05-21T03:09:39;8.30;;;4.30;;
76228;SDS011;65021;53.174;18.160;2023-05-21T03:12:07;9.60;;;5.30;;
76228;SDS011;65021;53.174;18.160;2023-05-21T03:14:34;10.10;;;5.20;;
76228;SDS011;65021;53.174;18.160;2023-05-21T03:17:01;8.70;;;3.60;;
76228;SDS011;65021;53.174;18.160;2023-05-21T03:19:31;10.20;;;5.70;;
76228;SDS011;65021;53.174;18.160;2023-05-21T03:22:00;8.70;;;4.60;;
76228;SDS011;65021;53.174;18.160;2023-05-21T03:24:27;11.90;;;6.30;;
76228;SDS011;65021;53.174;18.160;2023-05-21T03:26:55;10.00;;;5.80;;
76228;SDS011;65021;53.174;18.160;2023-05-21T03:29:22;8.90;;;5.00;;
76228;SDS011;65021;53.174;18.160;2023-05-21T03:31:50;12.20;;;6.10;;
76228;SDS011;65021;53.174;18.160;2023-05-21T03:34:19;8.50;;;4.10;;
76228;SDS011;65021;53.174;18.160;2023-05-21T03:36:46;11.20;;;5.30;;
76228;SDS011;65021;53.174;18.160;2023-05-21T03:39:13;6.90;;;3.60;;
76228;SDS011;65021;53.174;18.160;2023-05-21T03:41:40;12.80;;;6.30;;
76228;SDS011;65021;53.174;18.160;2023-05-21T03:44:07;8.90;;;4.60;;
76228;SDS011;65021;53.174;18.160;2023-05-21T03:46:34;10.20;;;4.80;;
76228;SDS011;65021;53.174;18.160;2023-05-21T03:49:01;12.00;;;6.10;;
76228;SDS011;65021;53.174;18.160;2023-05-21T03:51:27;9.90;;;5.00;;
76228;SDS011;65021;53.174;18.160;2023-05-21T03:53:58;10.00;;;5.20;;
76228;SDS011;65021;53.174;18.160;2023-05-21T03:56:26;8.40;;;4.30;;
76228;SDS011;65021;53.174;18.160;2023-05-21T03:58:52;7.00;;;4.10;;
76228;SDS011;65021;53.174;18.160;2023-05-21T04:01:19;9.30;;;5.90;;
76228;SDS011;65021;53.174;18.160;2023-05-21T04:03:46;8.80;;;5.30;;
76228;SDS011;65021;53.174;18.160;2023-05-21T04:06:12;9.00;;;4.90;;
76228;SDS011;65021;53.174;18.160;2023-05-21T04:08:39;10.10;;;4.90;;
76228;SDS011;65021;53.174;18.160;2023-05-21T04:11:06;10.80;;;4.70;;
76228;SDS011;65021;53.174;18.160;2023-05-21T04:13:32;7.00;;;4.10;;
76228;SDS011;65021;53.174;18.160;2023-05-21T04:15:59;8.70;;;4.90;;
76228;SDS011;65021;53.174;18.160;2023-05-21T04:18:25;9.20;;;4.70;;
76228;SDS011;65021;53.174;18.160;2023-05-21T04:20:52;9.20;;;5.60;;
76228;SDS011;65021;53.174;18.160;2023-05-21T04:23:19;10.50;;;5.20;;
76228;SDS011;65021;53.174;18.160;2023-05-21T04:25:48;10.30;;;6.00;;
76228;SDS011;65021;53.174;18.160;2023-05-21T04:28:15;8.80;;;5.20;;
76228;SDS011;65021;53.174;18.160;2023-05-21T04:30:45;9.70;;;6.00;;
76228;SDS011;65021;53.174;18.160;2023-05-21T04:33:12;6.60;;;3.90;;
76228;SDS011;65021;53.174;18.160;2023-05-21T04:35:43;9.70;;;5.70;;
76228;SDS011;65021;53.174;18.160;2023-05-21T04:38:11;10.20;;;5.70;;
76228;SDS011;65021;53.174;18.160;2023-05-21T04:40:38;13.00;;;6.00;;
76228;SDS011;65021;53.174;18.160;2023-05-21T04:43:05;8.80;;;4.80;;
76228;SDS011;65021;53.174;18.160;2023-05-21T04:45:33;8.50;;;4.30;;
76228;SDS011;65021;53.174;18.160;2023-05-21T04:47:59;6.30;;;3.30;;
76228;SDS011;65021;53.174;18.160;2023-05-21T04:50:26;8.50;;;5.20;;
76228;SDS011;65021;53.174;18.160;2023-05-21T04:52:55;10.80;;;5.30;;
76228;SDS011;65021;53.174;18.160;2023-05-21T04:55:23;9.90;;;5.80;;
76228;SDS011;65021;53.174;18.160;2023-05-21T04:57:50;6.90;;;4.30;;
76228;SDS011;65021;53.174;18.160;2023-05-21T05:00:17;8.80;;;5.00;;
76228;SDS011;65021;53.174;18.160;2023-05-21T05:02:44;9.20;;;5.70;;
76228;SDS011;65021;53.174;18.160;2023-05-21T05:05:11;11.10;;;5.40;;
76228;SDS011;65021;53.174;18.160;2023-05-21T05:07:37;8.60;;;5.10;;
76228;SDS011;65021;53.174;18.160;2023-05-21T05:10:04;11.00;;;5.50;;
76228;SDS011;65021;53.174;18.160;2023-05-21T05:12:31;10.90;;;5.30;;
76228;SDS011;65021;53.174;18.160;2023-05-21T05:14:57;8.90;;;5.10;;
76228;SDS011;65021;53.174;18.160;2023-05-21T05:17:24;8.90;;;5.60;;
76228;SDS011;65021;53.174;18.160;2023-05-21T05:19:51;7.80;;;5.20;;
76228;SDS011;65021;53.174;18.160;2023-05-21T05:22:18;8.00;;;5.20;;
76228;SDS011;65021;53.174;18.160;2023-05-21T05:24:44;8.90;;;5.10;;
76228;SDS011;65021;53.174;18.160;2023-05-21T05:27:11;9.90;;;5.50;;
76228;SDS011;65021;53.174;18.160;2023-05-21T05:29:37;8.10;;;5.30;;
76228;SDS011;65021;53.174;18.160;2023-05-21T05:32:04;7.80;;;4.90;;
76228;SDS011;65021;53.174;18.160;2023-05-21T05:34:31;8.80;;;5.60;;
76228;SDS011;65021;53.174;18.160;2023-05-21T05:36:57;8.00;;;4.50;;
76228;SDS011;65021;53.174;18.160;2023-05-21T05:39:24;8.60;;;4.80;;
76228;SDS011;65021;53.174;18.160;2023-05-21T05:41:51;8.80;;;5.40;;
76228;SDS011;65021;53.174;18.160;2023-05-21T05:44:17;10.10;;;5.10;;
76228;SDS011;65021;53.174;18.160;2023-05-21T05:46:44;9.30;;;4.70;;
76228;SDS011;65021;53.174;18.160;2023-05-21T05:49:10;7.00;;;4.80;;
76228;SDS011;65021;53.174;18.160;2023-05-21T05:51:37;8.10;;;4.10;;
76228;SDS011;65021;53.174;18.160;2023-05-21T05:54:03;8.80;;;4.80;;
76228;SDS011;65021;53.174;18.160;2023-05-21T05:56:30;7.20;;;4.10;;
76228;SDS011;65021;53.174;18.160;2023-05-21T05:58:57;7.00;;;4.80;;
76228;SDS011;65021;53.174;18.160;2023-05-21T06:01:24;9.50;;;4.90;;
76228;SDS011;65021;53.174;18.160;2023-05-21T06:03:51;9.90;;;4.80;;
76228;SDS011;65021;53.174;18.160;2023-05-21T06:06:18;8.40;;;4.90;;
76228;SDS011;65021;53.174;18.160;2023-05-21T06:08:45;7.50;;;4.40;;
76228;SDS011;65021;53.174;18.160;2023-05-21T06:11:11;6.50;;;4.20;;
76228;SDS011;65021;53.174;18.160;2023-05-21T06:13:38;8.00;;;4.60;;
76228;SDS011;65021;53.174;18.160;2023-05-21T06:16:04;8.10;;;4.30;;
76228;SDS011;65021;53.174;18.160;2023-05-21T06:18:31;8.20;;;4.00;;
76228;SDS011;65021;53.174;18.160;2023-05-21T06:20:58;7.90;;;4.40;;
76228;SDS011;65021;53.174;18.160;2023-05-21T06:23:24;7.00;;;4.20;;
76228;SDS011;65021;53.174;18.160;2023-05-21T06:25:51;5.90;;;3.40;;
76228;SDS011;65021;53.174;18.160;2023-05-21T06:28:17;7.60;;;4.30;;
76228;SDS011;65021;53.174;18.160;2023-05-21T06:30:44;8.30;;;4.30;;
76228;SDS011;65021;53.174;18.160;2023-05-21T06:33:10;6.20;;;3.10;;
76228;SDS011;65021;53.174;18.160;2023-05-21T06:35:37;9.30;;;4.30;;
76228;SDS011;65021;53.174;18.160;2023-05-21T06:38:05;7.90;;;4.50;;
76228;SDS011;65021;53.174;18.160;2023-05-21T06:40:32;6.00;;;3.30;;
76228;SDS011;65021;53.174;18.160;2023-05-21T06:43:00;5.70;;;3.60;;
76228;SDS011;65021;53.174;18.160;2023-05-21T06:45:26;7.20;;;4.10;;
76228;SDS011;65021;53.174;18.160;2023-05-21T06:47:53;6.20;;;3.60;;
76228;SDS011;65021;53.174;18.160;2023-05-21T06:50:19;6.60;;;3.00;;
76228;SDS011;65021;53.174;18.160;2023-05-21T06:52:46;5.70;;;3.50;;
76228;SDS011;65021;53.174;18.160;2023-05-21T06:55:12;7.40;;;3.50;;
76228;SDS011;65021;53.174;18.160;2023-05-21T06:57:39;7.50;;;3.60;;
76228;SDS011;65021;53.174;18.160;2023-05-21T07:00:06;6.20;;;2.80;;
76228;SDS011;65021;53.174;18.160;2023-05-21T07:02:34;7.10;;;3.30;;
76228;SDS011;65021;53.174;18.160;2023-05-21T07:05:01;5.60;;;3.30;;
76228;SDS011;65021;53.174;18.160;2023-05-21T07:07:29;6.80;;;3.20;;
76228;SDS011;65021;53.174;18.160;2023-05-21T07:09:56;5.10;;;2.80;;
76228;SDS011;65021;53.174;18.160;2023-05-21T07:12:22;7.70;;;3.20;;
76228;SDS011;65021;53.174;18.160;2023-05-21T07:14:49;4.90;;;2.50;;
76228;SDS011;65021;53.174;18.160;2023-05-21T07:17:15;6.80;;;2.80;;
76228;SDS011;65021;53.174;18.160;2023-05-21T07:19:42;4.70;;;2.20;;
76228;SDS011;65021;53.174;18.160;2023-05-21T07:22:08;5.10;;;2.90;;
76228;SDS011;65021;53.174;18.160;2023-05-21T07:24:35;7.00;;;2.90;;
76228;SDS011;65021;53.174;18.160;2023-05-21T07:27:01;5.10;;;2.90;;
76228;SDS011;65021;53.174;18.160;2023-05-21T07:29:28;5.60;;;3.20;;
76228;SDS011;65021;53.174;18.160;2023-05-21T07:31:55;4.30;;;2.80;;
76228;SDS011;65021;53.174;18.160;2023-05-21T07:34:21;4.60;;;2.30;;
76228;SDS011;65021;53.174;18.160;2023-05-21T07:36:48;4.40;;;2.20;;
76228;SDS011;65021;53.174;18.160;2023-05-21T07:39:15;4.90;;;2.40;;
76228;SDS011;65021;53.174;18.160;2023-05-21T07:41:41;5.50;;;2.50;;
76228;SDS011;65021;53.174;18.160;2023-05-21T07:44:08;6.00;;;2.80;;
76228;SDS011;65021;53.174;18.160;2023-05-21T07:46:35;8.20;;;2.90;;
76228;SDS011;65021;53.174;18.160;2023-05-21T07:49:01;5.70;;;2.20;;
76228;SDS011;65021;53.174;18.160;2023-05-21T07:51:28;5.30;;;2.60;;
76228;SDS011;65021;53.174;18.160;2023-05-21T07:53:55;8.50;;;2.40;;
76228;SDS011;65021;53.174;18.160;2023-05-21T07:56:21;8.20;;;2.40;;
76228;SDS011;65021;53.174;18.160;2023-05-21T07:58:48;4.80;;;2.80;;
76228;SDS011;65021;53.174;18.160;2023-05-21T08:01:15;5.90;;;2.40;;
76228;SDS011;65021;53.174;18.160;2023-05-21T08:03:43;5.50;;;2.30;;
76228;SDS011;65021;53.174;18.160;2023-05-21T08:06:09;4.40;;;2.60;;
76228;SDS011;65021;53.174;18.160;2023-05-21T08:08:36;7.50;;;2.50;;
76228;SDS011;65021;53.174;18.160;2023-05-21T08:11:03;6.40;;;2.50;;
76228;SDS011;65021;53.174;18.160;2023-05-21T08:13:29;6.90;;;3.00;;
76228;SDS011;65021;53.174;18.160;2023-05-21T08:15:56;4.10;;;2.20;;
76228;SDS011;65021;53.174;18.160;2023-05-21T08:18:22;5.10;;;2.40;;
76228;SDS011;65021;53.174;18.160;2023-05-21T08:20:50;4.50;;;2.10;;
76228;SDS011;65021;53.174;18.160;2023-05-21T08:23:17;4.20;;;2.00;;
76228;SDS011;65021;53.174;18.160;2023-05-21T08:25:43;6.40;;;2.30;;
76228;SDS011;65021;53.174;18.160;2023-05-21T08:28:10;5.30;;;2.20;;
76228;SDS011;65021;53.174;18.160;2023-05-21T08:30:36;4.60;;;2.20;;
76228;SDS011;65021;53.174;18.160;2023-05-21T08:33:03;6.90;;;2.60;;
76228;SDS011;65021;53.174;18.160;2023-05-21T08:35:29;3.80;;;1.70;;
76228;SDS011;65021;53.174;18.160;2023-05-21T08:37:56;5.60;;;1.70;;
76228;SDS011;65021;53.174;18.160;2023-05-21T08:40:22;4.00;;;2.00;;
76228;SDS011;65021;53.174;18.160;2023-05-21T08:42:49;4.10;;;1.80;;
76228;SDS011;65021;53.174;18.160;2023-05-21T08:45:20;4.50;;;1.40;;
76228;SDS011;65021;53.174;18.160;2023-05-21T08:47:48;5.50;;;1.80;;
76228;SDS011;65021;53.174;18.160;2023-05-21T08:50:25;5.80;;;2.00;;
76228;SDS011;65021;53.174;18.160;2023-05-21T08:52:52;5.60;;;2.00;;
76228;SDS011;65021;53.174;18.160;2023-05-21T08:55:20;3.90;;;1.60;;
76228;SDS011;65021;53.174;18.160;2023-05-21T08:57:50;6.10;;;1.80;;
76228;SDS011;65021;53.174;18.160;2023-05-21T09:00:19;3.70;;;1.70;;
76228;SDS011;65021;53.174;18.160;2023-05-21T09:02:46;4.10;;;1.40;;
76228;SDS011;65021;53.174;18.160;2023-05-21T09:05:13;4.50;;;1.50;;
76228;SDS011;65021;53.174;18.160;2023-05-21T09:07:47;4.90;;;1.60;;
76228;SDS011;65021;53.174;18.160;2023-05-21T09:10:22;4.30;;;1.60;;
76228;SDS011;65021;53.174;18.160;2023-05-21T09:12:52;4.10;;;1.20;;
76228;SDS011;65021;53.174;18.160;2023-05-21T09:15:19;3.70;;;1.60;;
76228;SDS011;65021;53.174;18.160;2023-05-21T09:17:46;4.00;;;1.60;;
76228;SDS011;65021;53.174;18.160;2023-05-21T09:20:13;5.50;;;1.80;;
76228;SDS011;65021;53.174;18.160;2023-05-21T09:22:44;4.70;;;1.70;;
76228;SDS011;65021;53.174;18.160;2023-05-21T09:25:13;10.40;;;2.30;;
76228;SDS011;65021;53.174;18.160;2023-05-21T09:27:41;5.90;;;1.70;;
76228;SDS011;65021;53.174;18.160;2023-05-21T09:30:12;4.60;;;1.70;;
76228;SDS011;65021;53.174;18.160;2023-05-21T09:32:40;5.60;;;1.70;;
76228;SDS011;65021;53.174;18.160;2023-05-21T09:35:07;3.50;;;1.30;;
76228;SDS011;65021;53.174;18.160;2023-05-21T09:37:44;4.50;;;2.00;;
76228;SDS011;65021;53.174;18.160;2023-05-21T09:40:16;3.50;;;1.50;;
76228;SDS011;65021;53.174;18.160;2023-05-21T09:42:51;4.40;;;1.80;;
76228;SDS011;65021;53.174;18.160;2023-05-21T09:47:47;6.80;;;2.20;;
76228;SDS011;65021;53.174;18.160;2023-05-21T09:50:22;5.80;;;2.00;;
76228;SDS011;65021;53.174;18.160;2023-05-21T09:55:20;4.60;;;1.70;;
76228;SDS011;65021;53.174;18.160;2023-05-21T09:57:48;3.40;;;1.60;;
76228;SDS011;65021;53.174;18.160;2023-05-21T10:00:17;3.70;;;1.70;;
76228;SDS011;65021;53.174;18.160;2023-05-21T10:02:46;5.20;;;1.50;;
76228;SDS011;65021;53.174;18.160;2023-05-21T10:05:15;3.90;;;1.70;;
76228;SDS011;65021;53.174;18.160;2023-05-21T10:07:49;3.40;;;1.70;;
76228;SDS011;65021;53.174;18.160;2023-05-21T10:10:18;5.40;;;2.20;;
76228;SDS011;65021;53.174;18.160;2023-05-21T10:12:46;4.60;;;1.80;;
76228;SDS011;65021;53.174;18.160;2023-05-21T10:15:19;6.50;;;1.70;;
76228;SDS011;65021;53.174;18.160;2023-05-21T10:17:48;8.60;;;1.90;;
76228;SDS011;65021;53.174;18.160;2023-05-21T10:20:15;4.00;;;1.80;;
76228;SDS011;65021;53.174;18.160;2023-05-21T10:22:43;4.80;;;1.50;;
76228;SDS011;65021;53.174;18.160;2023-05-21T10:25:11;19.10;;;2.50;;
76228;SDS011;65021;53.174;18.160;2023-05-21T10:27:38;5.20;;;1.40;;
76228;SDS011;65021;53.174;18.160;2023-05-21T10:30:06;5.40;;;1.70;;
76228;SDS011;65021;53.174;18.160;2023-05-21T10:32:34;5.30;;;1.90;;
76228;SDS011;65021;53.174;18.160;2023-05-21T10:35:00;6.80;;;1.70;;
76228;SDS011;65021;53.174;18.160;2023-05-21T10:37:27;4.70;;;1.30;;
76228;SDS011;65021;53.174;18.160;2023-05-21T10:39:54;4.80;;;1.50;;
76228;SDS011;65021;53.174;18.160;2023-05-21T11:01:36;3.60;;;1.80;;
76228;SDS011;65021;53.174;18.160;2023-05-21T11:06:31;4.90;;;1.70;;
76228;SDS011;65021;53.174;18.160;2023-05-21T11:09:16;5.70;;;1.80;;
76228;SDS011;65021;53.174;18.160;2023-05-21T11:16:57;5.40;;;1.60;;
76228;SDS011;65021;53.174;18.160;2023-05-21T11:19:31;4.90;;;1.60;;
76228;SDS011;65021;53.174;18.160;2023-05-21T11:22:03;4.70;;;1.80;;
76228;SDS011;65021;53.174;18.160;2023-05-21T11:24:31;4.70;;;1.70;;
76228;SDS011;65021;53.174;18.160;2023-05-21T11:26:59;4.10;;;1.50;;
76228;SDS011;65021;53.174;18.160;2023-05-21T11:29:42;3.30;;;1.50;;
76228;SDS011;65021;53.174;18.160;2023-05-21T11:32:10;4.20;;;2.30;;
76228;SDS011;65021;53.174;18.160;2023-05-21T11:34:41;4.00;;;1.80;;
76228;SDS011;65021;53.174;18.160;2023-05-21T11:39:44;5.40;;;1.90;;
76228;SDS011;65021;53.174;18.160;2023-05-21T11:42:10;3.50;;;1.60;;
76228;SDS011;65021;53.174;18.160;2023-05-21T11:44:41;4.80;;;1.70;;
76228;SDS011;65021;53.174;18.160;2023-05-21T11:47:09;4.60;;;1.40;;
76228;SDS011;65021;53.174;18.160;2023-05-21T11:49:45;4.90;;;1.40;;
76228;SDS011;65021;53.174;18.160;2023-05-21T11:52:12;3.20;;;1.10;;
76228;SDS011;65021;53.174;18.160;2023-05-21T11:57:15;3.50;;;1.60;;
76228;SDS011;65021;53.174;18.160;2023-05-21T11:59:44;3.70;;;1.60;;
76228;SDS011;65021;53.174;18.160;2023-05-21T12:02:14;4.10;;;1.40;;
76228;SDS011;65021;53.174;18.160;2023-05-21T12:04:43;6.20;;;2.00;;
76228;SDS011;65021;53.174;18.160;2023-05-21T12:07:11;4.70;;;1.70;;
76228;SDS011;65021;53.174;18.160;2023-05-21T12:09:40;4.30;;;1.80;;
76228;SDS011;65021;53.174;18.160;2023-05-21T12:12:07;4.50;;;1.70;;
76228;SDS011;65021;53.174;18.160;2023-05-21T12:14:36;3.90;;;1.50;;
76228;SDS011;65021;53.174;18.160;2023-05-21T12:17:03;4.20;;;1.60;;
76228;SDS011;65021;53.174;18.160;2023-05-21T12:19:33;3.60;;;1.40;;
76228;SDS011;65021;53.174;18.160;2023-05-21T12:22:01;3.80;;;1.60;;
76228;SDS011;65021;53.174;18.160;2023-05-21T12:24:29;5.30;;;1.80;;
76228;SDS011;65021;53.174;18.160;2023-05-21T12:27:00;5.10;;;2.00;;
76228;SDS011;65021;53.174;18.160;2023-05-21T12:29:29;4.00;;;1.70;;
76228;SDS011;65021;53.174;18.160;2023-05-21T12:32:00;4.90;;;1.80;;
76228;SDS011;65021;53.174;18.160;2023-05-21T12:37:04;5.00;;;1.70;;
76228;SDS011;65021;53.174;18.160;2023-05-21T12:39:39;4.90;;;1.70;;
76228;SDS011;65021;53.174;18.160;2023-05-21T12:42:09;4.00;;;1.20;;
76228;SDS011;65021;53.174;18.160;2023-05-21T12:44:37;5.00;;;1.70;;
76228;SDS011;65021;53.174;18.160;2023-05-21T12:47:04;4.50;;;1.70;;
76228;SDS011;65021;53.174;18.160;2023-05-21T12:49:32;4.20;;;1.60;;
76228;SDS011;65021;53.174;18.160;2023-05-21T12:52:10;3.70;;;1.90;;
76228;SDS011;65021;53.174;18.160;2023-05-21T12:54:38;5.70;;;2.30;;
76228;SDS011;65021;53.174;18.160;2023-05-21T12:57:12;3.50;;;1.60;;
76228;SDS011;65021;53.174;18.160;2023-05-21T13:02:29;3.40;;;1.50;;
76228;SDS011;65021;53.174;18.160;2023-05-21T13:04:58;5.70;;;1.70;;
76228;SDS011;65021;53.174;18.160;2023-05-21T13:07:28;3.90;;;1.40;;
76228;SDS011;65021;53.174;18.160;2023-05-21T13:09:57;4.20;;;1.40;;
76228;SDS011;65021;53.174;18.160;2023-05-21T13:12:24;5.20;;;1.90;;
76228;SDS011;65021;53.174;18.160;2023-05-21T13:14:56;4.30;;;1.60;;
76228;SDS011;65021;53.174;18.160;2023-05-21T13:17:24;4.80;;;2.30;;
76228;SDS011;65021;53.174;18.160;2023-05-21T13:22:35;5.20;;;2.00;;
76228;SDS011;65021;53.174;18.160;2023-05-21T13:25:04;4.10;;;1.70;;
76228;SDS011;65021;53.174;18.160;2023-05-21T13:27:31;3.60;;;1.50;;
76228;SDS011;65021;53.174;18.160;2023-05-21T13:29:58;4.70;;;1.80;;
76228;SDS011;65021;53.174;18.160;2023-05-21T13:32:25;3.30;;;1.50;;
76228;SDS011;65021;53.174;18.160;2023-05-21T13:34:51;4.20;;;2.00;;
76228;SDS011;65021;53.174;18.160;2023-05-21T13:37:18;5.30;;;1.70;;
76228;SDS011;65021;53.174;18.160;2023-05-21T13:39:46;5.70;;;1.60;;
76228;SDS011;65021;53.174;18.160;2023-05-21T13:42:12;3.70;;;1.60;;
76228;SDS011;65021;53.174;18.160;2023-05-21T13:44:39;4.40;;;1.70;;
76228;SDS011;65021;53.174;18.160;2023-05-21T13:47:06;7.00;;;1.50;;
76228;SDS011;65021;53.174;18.160;2023-05-21T13:49:35;4.60;;;1.50;;
76228;SDS011;65021;53.174;18.160;2023-05-21T13:52:02;5.80;;;2.20;;
76228;SDS011;65021;53.174;18.160;2023-05-21T13:54:29;4.50;;;1.50;;
76228;SDS011;65021;53.174;18.160;2023-05-21T13:56:56;6.70;;;1.70;;
76228;SDS011;65021;53.174;18.160;2023-05-21T13:59:23;4.90;;;1.90;;
76228;SDS011;65021;53.174;18.160;2023-05-21T14:01:49;4.00;;;1.60;;
76228;SDS011;65021;53.174;18.160;2023-05-21T14:04:17;4.40;;;1.90;;
76228;SDS011;65021;53.174;18.160;2023-05-21T14:06:45;3.90;;;1.60;;
76228;SDS011;65021;53.174;18.160;2023-05-21T14:09:12;4.40;;;1.60;;
76228;SDS011;65021;53.174;18.160;2023-05-21T14:11:39;4.50;;;1.60;;
76228;SDS011;65021;53.174;18.160;2023-05-21T14:14:06;3.60;;;1.80;;
76228;SDS011;65021;53.174;18.160;2023-05-21T14:16:33;3.80;;;1.40;;
76228;SDS011;65021;53.174;18.160;2023-05-21T14:18:59;4.80;;;1.80;;
76228;SDS011;65021;53.174;18.160;2023-05-21T14:21:26;4.80;;;1.70;;
76228;SDS011;65021;53.174;18.160;2023-05-21T14:23:52;4.30;;;1.70;;
76228;SDS011;65021;53.174;18.160;2023-05-21T14:26:19;4.20;;;1.50;;
76228;SDS011;65021;53.174;18.160;2023-05-21T14:28:46;3.90;;;1.70;;
76228;SDS011;65021;53.174;18.160;2023-05-21T14:31:13;5.80;;;1.80;;
76228;SDS011;65021;53.174;18.160;2023-05-21T14:33:40;4.60;;;1.60;;
76228;SDS011;65021;53.174;18.160;2023-05-21T14:36:06;4.00;;;1.70;;
76228;SDS011;65021;53.174;18.160;2023-05-21T14:38:33;5.30;;;1.70;;
76228;SDS011;65021;53.174;18.160;2023-05-21T14:40:59;3.90;;;1.50;;
76228;SDS011;65021;53.174;18.160;2023-05-21T14:43:26;3.60;;;1.50;;
76228;SDS011;65021;53.174;18.160;2023-05-21T14:45:53;4.40;;;1.80;;
76228;SDS011;65021;53.174;18.160;2023-05-21T14:48:19;4.40;;;1.60;;
76228;SDS011;65021;53.174;18.160;2023-05-21T14:50:49;3.70;;;1.60;;
76228;SDS011;65021;53.174;18.160;2023-05-21T14:53:16;4.60;;;1.80;;
76228;SDS011;65021;53.174;18.160;2023-05-21T14:55:44;5.40;;;1.60;;
76228;SDS011;65021;53.174;18.160;2023-05-21T14:58:11;6.60;;;1.90;;
76228;SDS011;65021;53.174;18.160;2023-05-21T15:00:37;4.00;;;2.00;;
76228;SDS011;65021;53.174;18.160;2023-05-21T15:03:04;4.20;;;1.60;;
76228;SDS011;65021;53.174;18.160;2023-05-21T15:05:32;5.00;;;1.70;;
76228;SDS011;65021;53.174;18.160;2023-05-21T15:07:58;3.90;;;1.80;;
76228;SDS011;65021;53.174;18.160;2023-05-21T15:10:25;6.50;;;2.10;;
76228;SDS011;65021;53.174;18.160;2023-05-21T15:12:52;5.00;;;1.70;;
76228;SDS011;65021;53.174;18.160;2023-05-21T15:15:19;5.70;;;1.70;;
76228;SDS011;65021;53.174;18.160;2023-05-21T15:17:46;4.10;;;1.40;;
76228;SDS011;65021;53.174;18.160;2023-05-21T15:20:13;6.70;;;1.90;;
76228;SDS011;65021;53.174;18.160;2023-05-21T15:22:40;4.40;;;1.80;;
76228;SDS011;65021;53.174;18.160;2023-05-21T15:25:07;4.30;;;1.50;;
76228;SDS011;65021;53.174;18.160;2023-05-21T15:27:34;5.00;;;1.70;;
76228;SDS011;65021;53.174;18.160;2023-05-21T15:30:01;4.50;;;1.70;;